createdAt,value
2022-12-04T00:01:15.461Z,14.98
2022-12-04T00:03:42.387Z,15.05
2022-12-04T00:06:28.202Z,15.50
2022-12-04T00:08:55.701Z,14.52
2022-12-04T00:11:25.989Z,15.15
2022-12-04T00:13:53.026Z,15.13
2022-12-04T00:16:26.240Z,15.77
2022-12-04T00:19:02.989Z,14.90
2022-12-04T00:21:29.690Z,16.73
2022-12-04T00:23:56.324Z,16.73
2022-12-04T00:26:25.858Z,13.95
2022-12-04T00:28:53.412Z,15.25
2022-12-04T00:31:23.690Z,15.02
2022-12-04T00:33:50.610Z,17.55
2022-12-04T00:36:19.359Z,15.02
2022-12-04T00:38:46.088Z,15.18
2022-12-04T00:41:15.668Z,15.65
2022-12-04T00:43:42.879Z,15.70
2022-12-04T00:46:10.052Z,15.43
2022-12-04T00:48:36.918Z,16.88
2022-12-04T00:51:05.640Z,16.60
2022-12-04T00:53:32.852Z,16.02
2022-12-04T00:55:59.700Z,15.70
2022-12-04T00:58:26.329Z,16.15
2022-12-04T01:01:03.281Z,14.95
2022-12-04T01:03:30.065Z,14.95
2022-12-04T01:05:56.830Z,14.02
2022-12-04T01:08:23.534Z,13.60
2022-12-04T01:10:50.230Z,15.20
2022-12-04T01:13:16.874Z,15.35
2022-12-04T01:15:44.362Z,14.93
2022-12-04T01:18:12.374Z,14.60
2022-12-04T01:20:39.194Z,14.77
2022-12-04T01:23:06.189Z,15.85
2022-12-04T01:25:32.822Z,14.23
2022-12-04T01:27:59.566Z,13.40
2022-12-04T01:30:28.766Z,15.57
2022-12-04T01:32:55.698Z,16.55
2022-12-04T01:35:22.530Z,15.43
2022-12-04T01:37:49.265Z,15.40
2022-12-04T01:40:17.713Z,13.73
2022-12-04T01:42:44.479Z,14.85
2022-12-04T01:45:40.664Z,15.27
2022-12-04T01:48:19.635Z,13.40
2022-12-04T01:50:50.445Z,14.85
2022-12-04T01:53:18.213Z,14.75
2022-12-04T01:55:46.017Z,13.88
2022-12-04T01:58:13.006Z,15.75
2022-12-04T02:00:39.728Z,14.30
2022-12-04T02:03:06.680Z,15.05
2022-12-04T02:05:33.444Z,14.63
2022-12-04T02:08:05.642Z,14.50
2022-12-04T02:10:49.794Z,14.80
2022-12-04T02:13:51.899Z,13.90
2022-12-04T02:16:30.413Z,12.63
2022-12-04T02:19:03.086Z,13.80
2022-12-04T02:21:52.690Z,15.35
2022-12-04T02:24:19.268Z,13.48
2022-12-04T02:27:31.529Z,12.63
2022-12-04T02:30:04.259Z,14.70
2022-12-04T02:32:36.978Z,15.43
2022-12-04T02:35:52.963Z,14.40
2022-12-04T02:38:40.436Z,14.20
2022-12-04T02:41:14.229Z,12.30
2022-12-04T02:43:48.989Z,12.32
2022-12-04T02:46:32.522Z,14.35
2022-12-04T02:49:03.541Z,13.13
2022-12-04T02:51:34.803Z,15.55
2022-12-04T02:54:30.163Z,15.50
2022-12-04T02:56:59.746Z,14.23
2022-12-04T02:59:39.853Z,14.65
2022-12-04T03:02:17.301Z,13.18
2022-12-04T03:04:50.774Z,14.82
2022-12-04T03:07:44.478Z,12.77
2022-12-04T03:10:16.246Z,13.68
2022-12-04T03:12:52.408Z,13.10
2022-12-04T03:15:40.277Z,13.90
2022-12-04T03:18:12.487Z,13.90
2022-12-04T03:20:40.106Z,15.13
2022-12-04T03:23:14.679Z,13.30
2022-12-04T03:25:50.663Z,14.02
2022-12-04T03:30:57.565Z,11.55
2022-12-04T03:33:32.354Z,14.50
2022-12-04T03:36:08.988Z,12.88
2022-12-04T03:39:07.828Z,14.43
2022-12-04T03:41:52.166Z,13.98
2022-12-04T03:44:26.155Z,13.30
2022-12-04T03:47:06.571Z,14.23
2022-12-04T03:49:38.775Z,12.98
2022-12-04T03:52:25.502Z,15.70
2022-12-04T03:54:58.616Z,14.27
2022-12-04T03:57:31.250Z,13.60
2022-12-04T04:00:10.997Z,13.80
2022-12-04T04:02:43.314Z,14.40
2022-12-04T04:05:13.261Z,15.40
2022-12-04T04:07:56.757Z,15.18
2022-12-04T04:10:26.845Z,14.07
2022-12-04T04:13:40.578Z,12.70
2022-12-04T04:16:30.571Z,13.40
2022-12-04T04:19:17.505Z,15.18
2022-12-04T04:22:04.637Z,14.48
2022-12-04T04:24:42.498Z,14.63
2022-12-04T04:27:09.239Z,14.82
2022-12-04T04:29:36.612Z,14.15
2022-12-04T04:32:34.431Z,14.35
2022-12-04T04:35:14.046Z,13.90
2022-12-04T04:38:08.069Z,12.65
2022-12-04T04:40:43.349Z,12.85
2022-12-04T04:43:23.425Z,14.25
2022-12-04T04:46:08.286Z,14.07
2022-12-04T04:48:40.854Z,13.75
2022-12-04T04:51:08.211Z,15.38
2022-12-04T04:53:43.386Z,11.23
2022-12-04T04:56:10.398Z,14.70
2022-12-04T04:58:37.103Z,14.68
2022-12-04T05:01:07.621Z,15.93
2022-12-04T05:03:35.135Z,13.82
2022-12-04T05:06:02.256Z,14.90
2022-12-04T05:08:34.454Z,15.02
2022-12-04T05:11:02.547Z,12.15
2022-12-04T05:13:30.457Z,14.32
2022-12-04T05:16:02.850Z,13.60
2022-12-04T05:18:31.031Z,14.27
2022-12-04T05:20:57.977Z,12.45
2022-12-04T05:23:25.101Z,14.90
2022-12-04T05:25:59.769Z,10.90
2022-12-04T05:28:26.707Z,14.13
2022-12-04T05:31:01.714Z,14.25
2022-12-04T05:33:29.273Z,13.60
2022-12-04T05:36:01.114Z,12.02
2022-12-04T05:38:28.241Z,13.85
2022-12-04T05:40:55.037Z,13.77
2022-12-04T05:43:21.642Z,13.45
2022-12-04T05:45:48.261Z,11.95
2022-12-04T05:48:15.536Z,13.27
2022-12-04T05:50:42.422Z,12.88
2022-12-04T05:53:09.082Z,14.27
2022-12-04T05:55:35.810Z,12.30
2022-12-04T05:58:02.678Z,11.70
2022-12-04T06:00:29.947Z,12.18
2022-12-04T06:02:56.685Z,12.40
2022-12-04T06:05:23.359Z,11.98
2022-12-04T06:07:50.125Z,11.38
2022-12-04T06:10:16.924Z,13.43
2022-12-04T06:12:43.613Z,10.90
2022-12-04T06:15:10.746Z,11.93
2022-12-04T06:17:37.453Z,10.48
2022-12-04T06:20:10.957Z,10.57
2022-12-04T06:22:38.379Z,11.00
2022-12-04T06:25:05.349Z,12.02
2022-12-04T06:27:32.208Z,12.18
2022-12-04T06:29:59.446Z,11.82
2022-12-04T06:32:26.286Z,11.27
2022-12-04T06:34:54.614Z,10.95
2022-12-04T06:37:23.199Z,10.75
2022-12-04T06:39:49.892Z,10.73
2022-12-04T06:42:17.195Z,9.95
2022-12-04T06:44:44.021Z,8.27
2022-12-04T06:47:10.721Z,10.32
2022-12-04T06:49:37.456Z,8.60
2022-12-04T06:52:04.205Z,9.15
2022-12-04T06:54:30.847Z,8.70
2022-12-04T06:56:57.531Z,8.68
2022-12-04T06:59:24.324Z,9.82
2022-12-04T07:01:51.015Z,8.68
2022-12-04T07:04:17.845Z,9.05
2022-12-04T07:06:44.638Z,9.00
2022-12-04T07:09:14.548Z,8.93
2022-12-04T07:11:42.905Z,8.68
2022-12-04T07:14:11.064Z,9.23
2022-12-04T07:16:41.496Z,7.95
2022-12-04T07:19:10.854Z,7.78
2022-12-04T07:21:37.686Z,8.60
2022-12-04T07:24:04.604Z,8.68
2022-12-04T07:26:31.471Z,6.78
2022-12-04T07:28:59.086Z,7.50
2022-12-04T07:31:27.906Z,8.50
2022-12-04T07:33:55.304Z,8.27
2022-12-04T07:36:23.602Z,7.22
2022-12-04T07:38:50.982Z,7.75
2022-12-04T07:41:18.840Z,8.95
2022-12-04T07:43:45.789Z,8.02
2022-12-04T07:46:14.946Z,7.43
2022-12-04T07:48:42.178Z,7.20
2022-12-04T07:51:14.787Z,7.45
2022-12-04T07:53:42.093Z,7.65
2022-12-04T07:56:10.127Z,7.88
2022-12-04T07:58:36.995Z,7.47
2022-12-04T08:01:18.622Z,7.50
2022-12-04T08:03:48.405Z,7.45
2022-12-04T08:06:17.757Z,7.88
2022-12-04T08:08:44.495Z,7.15
2022-12-04T08:11:14.188Z,7.85
2022-12-04T08:13:40.879Z,8.20
2022-12-04T08:16:10.195Z,7.70
2022-12-04T08:18:36.916Z,7.97
2022-12-04T08:21:04.545Z,7.95
2022-12-04T08:23:31.419Z,6.63
2022-12-04T08:26:00.456Z,7.43
2022-12-04T08:28:27.377Z,7.22
2022-12-04T08:30:54.099Z,8.18
2022-12-04T08:33:22.293Z,8.27
2022-12-04T08:35:49.072Z,6.70
2022-12-04T08:38:15.764Z,7.38
2022-12-04T08:40:42.792Z,7.57
2022-12-04T08:43:09.624Z,7.38
2022-12-04T08:45:36.235Z,7.32
2022-12-04T08:48:03.037Z,6.78
2022-12-04T08:50:31.553Z,8.20
2022-12-04T08:52:58.291Z,8.50
2022-12-04T08:55:25.024Z,7.32
2022-12-04T08:57:52.790Z,7.07
2022-12-04T09:00:20.081Z,7.03
2022-12-04T09:02:50.130Z,7.18
2022-12-04T09:05:21.034Z,6.95
2022-12-04T09:07:47.687Z,6.90
2022-12-04T09:10:14.534Z,7.70
2022-12-04T09:12:41.335Z,6.43
2022-12-04T09:15:08.922Z,7.38
2022-12-04T09:17:39.576Z,7.95
2022-12-04T09:20:08.109Z,7.00
2022-12-04T09:22:57.793Z,6.90
2022-12-04T09:25:22.365Z,7.13
2022-12-04T09:27:49.008Z,6.45
2022-12-04T09:30:15.706Z,7.70
2022-12-04T09:32:42.448Z,7.22
2022-12-04T09:35:09.188Z,8.48
2022-12-04T09:37:39.300Z,9.23
2022-12-04T09:40:08.018Z,8.15
2022-12-04T09:42:46.381Z,8.60
2022-12-04T09:45:20.540Z,8.73
2022-12-04T09:47:50.571Z,8.85
2022-12-04T09:50:20.447Z,7.60
2022-12-04T09:53:00.405Z,7.82
2022-12-04T09:55:59.719Z,7.13
2022-12-04T09:58:41.341Z,7.60
2022-12-04T10:01:21.189Z,8.68
2022-12-04T10:03:48.219Z,8.07
2022-12-04T10:06:48.742Z,8.75
2022-12-04T10:09:28.511Z,8.75
2022-12-04T10:12:19.590Z,8.63
2022-12-04T10:14:53.630Z,9.88
2022-12-04T10:17:55.468Z,9.30
2022-12-04T10:20:40.479Z,9.55
2022-12-04T10:23:51.528Z,9.45
2022-12-04T10:26:22.774Z,9.30
2022-12-04T10:28:58.403Z,10.18
2022-12-04T10:31:28.084Z,11.70
2022-12-04T10:34:01.621Z,11.38
2022-12-04T10:36:35.717Z,10.48
2022-12-04T10:39:33.341Z,11.00
2022-12-04T10:42:06.687Z,10.82
2022-12-04T10:44:33.485Z,11.18
2022-12-04T10:47:02.263Z,10.63
2022-12-04T10:49:32.546Z,10.75
2022-12-04T10:51:59.368Z,11.00
2022-12-04T10:54:37.512Z,11.23
2022-12-04T10:57:10.155Z,11.68
2022-12-04T10:59:48.999Z,12.02
2022-12-04T11:02:33.980Z,11.55
2022-12-04T11:05:53.191Z,12.73
2022-12-04T11:08:38.773Z,11.00
2022-12-04T11:11:13.350Z,12.45
2022-12-04T11:17:04.057Z,10.55
2022-12-04T11:19:33.913Z,11.27
2022-12-04T11:22:19.048Z,12.48
2022-12-04T11:24:58.300Z,10.90
2022-12-04T11:27:38.447Z,11.63
2022-12-04T11:30:20.536Z,11.85
2022-12-04T11:32:47.666Z,13.20
2022-12-04T11:35:22.423Z,12.40
2022-12-04T11:38:16.490Z,13.02
2022-12-04T11:40:52.347Z,12.05
2022-12-04T11:43:19.839Z,11.70
2022-12-04T11:46:01.642Z,14.23
2022-12-04T11:48:30.965Z,13.15
2022-12-04T11:51:19.055Z,12.48
2022-12-04T11:54:11.571Z,14.00
2022-12-04T11:56:42.888Z,12.18
2022-12-04T11:59:36.760Z,12.80
2022-12-04T12:02:33.184Z,13.20
2022-12-04T12:05:13.161Z,10.77
2022-12-04T12:08:12.182Z,13.23
2022-12-04T12:10:48.467Z,12.63
2022-12-04T12:13:30.390Z,13.18
2022-12-04T12:16:00.150Z,12.43
2022-12-04T12:18:51.768Z,14.48
2022-12-04T12:21:34.531Z,11.45
2022-12-04T12:24:19.345Z,12.77
2022-12-04T12:26:55.431Z,13.48
2022-12-04T12:29:22.361Z,12.65
2022-12-04T12:32:07.439Z,11.93
2022-12-04T12:34:41.272Z,13.18
2022-12-04T12:37:16.970Z,12.10
2022-12-04T12:39:57.901Z,14.77
2022-12-04T12:42:39.121Z,14.32
2022-12-04T12:45:30.814Z,11.82
2022-12-04T12:48:08.256Z,13.05
2022-12-04T12:51:08.978Z,13.88
2022-12-04T12:53:42.202Z,14.65
2022-12-04T12:56:13.179Z,14.18
2022-12-04T12:58:57.815Z,13.82
2022-12-04T13:01:46.821Z,13.65
2022-12-04T13:04:18.834Z,13.00
2022-12-04T13:06:49.590Z,14.32
2022-12-04T13:09:30.971Z,13.95
2022-12-04T13:12:09.065Z,14.50
2022-12-04T13:14:35.785Z,14.65
2022-12-04T13:17:08.710Z,13.82
2022-12-04T13:19:43.569Z,15.10
2022-12-04T13:22:22.130Z,14.65
2022-12-04T13:25:28.054Z,14.50
2022-12-04T13:28:06.971Z,12.43
2022-12-04T13:30:45.997Z,14.25
2022-12-04T13:33:12.647Z,12.32
2022-12-04T13:36:12.161Z,13.38
2022-12-04T13:39:00.536Z,12.73
2022-12-04T13:41:29.238Z,13.82
2022-12-04T13:43:57.589Z,12.57
2022-12-04T13:46:37.835Z,13.63
2022-12-04T13:49:28.095Z,12.98
2022-12-04T13:51:56.694Z,13.13
2022-12-04T13:54:27.959Z,13.48
2022-12-04T13:56:57.734Z,13.20
2022-12-04T13:59:27.201Z,14.27
2022-12-04T14:02:21.616Z,14.77
2022-12-04T14:05:01.079Z,12.50
2022-12-04T14:07:37.452Z,13.77
2022-12-04T14:10:05.806Z,14.68
2022-12-04T14:12:39.041Z,14.27
2022-12-04T14:15:19.340Z,12.70
2022-12-04T14:17:57.047Z,13.90
2022-12-04T14:20:32.281Z,12.27
2022-12-04T14:23:20.040Z,14.20
2022-12-04T14:25:46.759Z,14.73
2022-12-04T14:28:25.191Z,14.02
2022-12-04T14:31:04.721Z,13.88
2022-12-04T14:33:35.382Z,13.82
2022-12-04T14:36:07.148Z,14.15
2022-12-04T14:38:34.279Z,13.68
2022-12-04T14:41:01.947Z,14.68
2022-12-04T14:43:35.508Z,13.70
2022-12-04T14:46:09.634Z,14.25
2022-12-04T14:48:58.284Z,13.63
2022-12-04T14:51:45.029Z,12.75
2022-12-04T14:54:34.620Z,14.00
2022-12-04T14:57:34.033Z,13.68
2022-12-04T15:00:01.798Z,14.15
2022-12-04T15:02:28.637Z,13.25
2022-12-04T15:04:56.465Z,15.02
2022-12-04T15:07:26.327Z,13.85
2022-12-04T15:10:18.360Z,14.32
2022-12-04T15:12:50.074Z,14.07
2022-12-04T15:15:26.160Z,14.50
2022-12-04T15:18:12.271Z,14.50
2022-12-04T15:20:59.534Z,14.50
2022-12-04T15:23:28.949Z,14.75
2022-12-04T15:25:57.905Z,13.98
2022-12-04T15:28:30.402Z,14.07
2022-12-04T15:30:59.143Z,15.07
2022-12-04T15:33:30.609Z,14.05
2022-12-04T15:36:05.891Z,15.30
2022-12-04T15:38:33.476Z,15.48
2022-12-04T15:41:01.834Z,14.98
2022-12-04T15:43:32.046Z,14.98
2022-12-04T15:45:59.404Z,15.25
2022-12-04T15:48:28.416Z,14.95
2022-12-04T15:50:57.521Z,14.55
2022-12-04T15:53:30.674Z,16.08
2022-12-04T15:56:02.500Z,14.50
2022-12-04T15:58:40.149Z,13.90
2022-12-04T16:01:15.734Z,14.70
2022-12-04T16:03:42.512Z,14.07
2022-12-04T16:06:24.665Z,15.10
2022-12-04T16:08:54.440Z,16.02
2022-12-04T16:11:24.414Z,14.70
2022-12-04T16:14:05.194Z,12.60
2022-12-04T16:16:32.325Z,13.07
2022-12-04T16:18:59.080Z,15.35
2022-12-04T16:21:31.216Z,13.40
2022-12-04T16:24:02.597Z,12.38
2022-12-04T16:26:29.228Z,14.45
2022-12-04T16:28:55.963Z,16.10
2022-12-04T16:31:24.154Z,13.95
2022-12-04T16:33:50.829Z,12.52
2022-12-04T16:36:18.209Z,13.35
2022-12-04T16:38:44.932Z,13.32
2022-12-04T16:41:19.493Z,12.95
2022-12-04T16:43:55.040Z,13.05
2022-12-04T16:46:25.228Z,13.50
2022-12-04T16:48:52.318Z,11.85
2022-12-04T16:51:24.702Z,11.43
2022-12-04T16:53:52.547Z,12.15
2022-12-04T16:56:19.688Z,12.43
2022-12-04T16:58:46.578Z,12.88
2022-12-04T17:01:28.520Z,11.63
2022-12-04T17:03:55.243Z,12.30
2022-12-04T17:06:22.170Z,13.10
2022-12-04T17:08:48.962Z,11.77
2022-12-04T17:11:17.668Z,11.18
2022-12-04T17:13:45.129Z,12.43
2022-12-04T17:16:14.776Z,12.43
2022-12-04T17:18:45.348Z,10.77
2022-12-04T17:21:13.924Z,13.27
2022-12-04T17:23:41.306Z,14.18
2022-12-04T17:26:11.113Z,13.15
2022-12-04T17:28:38.852Z,12.10
2022-12-04T17:31:13.818Z,12.05
2022-12-04T17:33:40.742Z,13.25
2022-12-04T17:36:13.209Z,12.82
2022-12-04T17:38:43.581Z,11.80
2022-12-04T17:41:15.460Z,12.20
2022-12-04T17:43:43.669Z,10.55
2022-12-04T17:46:12.663Z,10.68
2022-12-04T17:48:39.708Z,13.10
2022-12-04T17:51:07.712Z,12.07
2022-12-04T17:53:34.940Z,14.10
2022-12-04T17:56:11.719Z,12.48
2022-12-04T17:58:38.687Z,12.43
2022-12-04T18:01:11.518Z,11.80
2022-12-04T18:03:39.257Z,11.52
2022-12-04T18:06:26.071Z,11.65
2022-12-04T18:08:53.598Z,11.73
2022-12-04T18:11:22.207Z,10.85
2022-12-04T18:13:53.482Z,12.05
2022-12-04T18:16:20.287Z,13.18
2022-12-04T18:18:47.709Z,12.60
2022-12-04T18:21:15.503Z,12.82
2022-12-04T18:23:45.982Z,11.90
2022-12-04T18:26:24.401Z,11.23
2022-12-04T18:28:51.736Z,12.43
2022-12-04T18:31:19.531Z,12.40
2022-12-04T18:33:46.629Z,13.30
2022-12-04T18:36:21.818Z,12.68
2022-12-04T18:38:54.714Z,12.98
2022-12-04T18:41:21.568Z,10.75
2022-12-04T18:43:48.245Z,11.32
2022-12-04T18:46:16.815Z,10.60
2022-12-04T18:48:45.452Z,11.80
2022-12-04T18:51:23.732Z,13.40
2022-12-04T18:53:52.616Z,13.23
2022-12-04T18:56:20.078Z,13.23
2022-12-04T18:58:47.166Z,12.57
2022-12-04T19:01:18.392Z,12.80
2022-12-04T19:03:47.228Z,10.63
2022-12-04T19:06:14.725Z,10.77
2022-12-04T19:08:43.545Z,11.57
2022-12-04T19:11:16.218Z,11.05
2022-12-04T19:13:43.237Z,11.50
2022-12-04T19:16:17.520Z,11.88
2022-12-04T19:18:47.887Z,10.82
2022-12-04T19:21:15.772Z,12.02
2022-12-04T19:23:43.696Z,10.93
2022-12-04T19:26:10.460Z,12.60
2022-12-04T19:28:37.207Z,10.85
2022-12-04T19:31:04.887Z,12.68
2022-12-04T19:33:31.807Z,11.52
2022-12-04T19:35:59.635Z,12.05
2022-12-04T19:38:26.405Z,11.65
2022-12-04T19:41:34.415Z,11.48
2022-12-04T19:44:07.831Z,11.40
2022-12-04T19:46:41.529Z,11.43
2022-12-04T19:49:08.538Z,12.20
2022-12-04T19:51:38.561Z,10.85
2022-12-04T19:54:06.677Z,12.70
2022-12-04T19:56:34.565Z,12.15
2022-12-04T20:01:32.469Z,10.25
2022-12-04T20:04:02.735Z,11.60
2022-12-04T20:06:31.182Z,12.32
2022-12-04T20:09:00.842Z,11.35
2022-12-04T20:11:28.945Z,11.27
2022-12-04T20:13:58.857Z,12.25
2022-12-04T20:16:27.775Z,10.98
2022-12-04T20:18:55.571Z,11.48
2022-12-04T20:21:29.257Z,12.18
2022-12-04T20:23:57.024Z,10.23
2022-12-04T20:26:28.941Z,10.95
2022-12-04T20:28:58.622Z,13.20
2022-12-04T20:31:43.155Z,11.60
2022-12-04T20:34:18.501Z,11.07
2022-12-04T20:36:47.360Z,11.18
2022-12-04T20:39:15.209Z,10.65
2022-12-04T20:41:42.438Z,11.55
2022-12-04T20:44:15.286Z,12.15
2022-12-04T20:46:43.326Z,11.35
2022-12-04T20:49:18.781Z,11.85
2022-12-04T20:51:48.169Z,12.98
2022-12-04T20:54:20.430Z,11.90
2022-12-04T20:57:02.417Z,11.45
2022-12-04T20:59:29.488Z,11.25
2022-12-04T21:01:59.013Z,11.38
2022-12-04T21:04:29.258Z,12.43
2022-12-04T21:06:58.525Z,12.05
2022-12-04T21:09:27.423Z,13.25
2022-12-04T21:11:56.217Z,14.02
2022-12-04T21:14:45.350Z,12.38
2022-12-04T21:17:19.053Z,12.52
2022-12-04T21:19:47.778Z,12.85
2022-12-04T21:22:17.930Z,13.23
2022-12-04T21:24:44.739Z,12.93
2022-12-04T21:27:17.173Z,12.48
2022-12-04T21:29:50.547Z,11.07
2022-12-04T21:32:19.026Z,12.45
2022-12-04T21:34:45.770Z,13.18
2022-12-04T21:37:12.911Z,12.38
2022-12-04T21:39:39.972Z,12.90
2022-12-04T21:42:25.684Z,13.18
2022-12-04T21:44:52.685Z,12.77
2022-12-04T21:47:23.664Z,12.05
2022-12-04T21:49:51.312Z,12.60
2022-12-04T21:52:19.063Z,13.38
2022-12-04T21:54:49.733Z,11.75
2022-12-04T21:57:16.693Z,12.10
2022-12-04T21:59:43.466Z,13.73
2022-12-04T22:02:14.148Z,13.88
2022-12-04T22:04:41.489Z,13.32
2022-12-04T22:07:08.399Z,13.07
2022-12-04T22:09:36.119Z,12.65
2022-12-04T22:15:01.695Z,13.70
2022-12-04T22:17:31.994Z,12.40
2022-12-04T22:20:03.071Z,12.27
2022-12-04T22:22:30.261Z,12.27
2022-12-04T22:24:59.374Z,14.82
2022-12-04T22:27:28.517Z,13.65
2022-12-04T22:30:00.977Z,13.50
2022-12-04T22:32:31.210Z,13.23
2022-12-04T22:35:01.915Z,12.15
2022-12-04T22:37:44.051Z,13.50
2022-12-04T22:40:13.339Z,13.85
2022-12-04T22:42:42.301Z,13.60
2022-12-04T22:45:10.052Z,12.55
2022-12-04T22:47:37.211Z,13.32
2022-12-04T22:50:06.547Z,12.18
2022-12-04T22:52:33.529Z,13.43
2022-12-04T22:55:00.325Z,14.10
2022-12-04T22:57:27.892Z,11.18
2022-12-04T22:59:54.917Z,11.65
2022-12-04T23:02:21.973Z,12.98
2022-12-04T23:04:48.774Z,11.60
2022-12-04T23:07:15.417Z,13.52
2022-12-04T23:09:42.787Z,12.05
2022-12-04T23:12:10.460Z,11.93
2022-12-04T23:14:37.163Z,12.57
2022-12-04T23:17:04.608Z,12.35
2022-12-04T23:19:31.657Z,12.20
2022-12-04T23:21:59.148Z,11.18
2022-12-04T23:24:26.503Z,12.70
2022-12-04T23:26:59.524Z,12.75
2022-12-04T23:32:15.885Z,11.77
2022-12-04T23:34:46.602Z,13.07
2022-12-04T23:37:22.395Z,11.48
2022-12-04T23:39:49.644Z,12.05
2022-12-04T23:42:16.864Z,11.82
2022-12-04T23:44:43.697Z,12.95
2022-12-04T23:47:15.250Z,12.25
2022-12-04T23:49:42.706Z,12.35
2022-12-04T23:52:10.769Z,12.38
2022-12-04T23:54:37.834Z,11.40
2022-12-04T23:57:05.030Z,11.38
2022-12-04T23:59:31.985Z,12.50
